Fairbanks International Airport Fairbanks US
ICAO: PAFA
IATA: FAI
Category: Large
Scheduled Services:

Elevation: 439 ft
TransAlt. 18000 ft.

Airport Communications:
APP:118.6
ASOS:119.025
ATIS:124.4
TWEB:108.2
CLNC DEL:127.6
DEP:32.71
RDO:122.6
GND:121.9
EIELSON RANGE CON:125.3
TWR:118.3
UNICOM:122.95

PAFA Zoom In..

Runways:

(A) RW 02 length 2900 ft width 75 ft
---- / hdg 17

(B) RW 02L length 11800 ft width 150 ft
ILS 109.10 / hdg 17

(C) RW 02R length 6501 ft width 100 ft
---- / hdg 17

(D) RW 20 length 2900 ft width 75 ft
---- / hdg 197

(E) RW 20L length 6501 ft width 100 ft
---- / hdg 197

(F) RW 20R length 11800 ft width 150 ft
ILS 110.30 / hdg 197

Location; PAFA
Day. 16 / Time. 17.53 Zulu
* Altimeter: 29.82
* Temperature: 13° c. 55.4°f.
* Wind from: 240° Speed 07 kn.
Dewpoint: 09° c.
Visibility: 10 Statute Miles.
Clouds: Few 1300 ft.
Clouds: Broken 6000 ft.
Clouds: Broken 8000 ft.
Clouds: Overcast 2000 ft.

PAFA 161753Z 24007KT 10SM FEW013 BKN060 BKN080 OVC200 13/09 A2982 RMK AO2 SLP102 T01330094 10139 20111 51011


Wind From 240°
Speed 07 kn.

 
 
jpsmedia.com for Web Design worldairports.se 2018   terms of use